createdAt,value
2023-02-18T00:00:24.633Z,9070.51335
2023-02-18T00:15:27.049Z,9077.78721
2023-02-18T00:30:29.315Z,8741.31326
2023-02-18T00:45:31.766Z,8962.78754
2023-02-18T01:00:34.020Z,8447.7617
2023-02-18T01:15:36.290Z,7758.73936
2023-02-18T01:30:38.584Z,7462.09673
2023-02-18T01:45:40.874Z,7101.6316
2023-02-18T02:00:43.226Z,7806.89705
2023-02-18T02:15:45.480Z,8226.74469
2023-02-18T02:30:47.737Z,8498.49901
2023-02-18T02:45:50.087Z,8748.06852
2023-02-18T03:00:52.388Z,8504.88406
2023-02-18T03:15:54.711Z,7265.72577
2023-02-18T03:30:56.919Z,6831.62389
2023-02-18T03:46:02.610Z,6528.25884
2023-02-18T04:01:04.967Z,5648.70315
2023-02-18T04:16:07.670Z,4724.54142
2023-02-18T04:31:10.316Z,3689.70062
2023-02-18T04:46:12.660Z,3239.84021
2023-02-18T05:01:14.953Z,2788.17786
2023-02-18T05:16:17.242Z,2544.96454
2023-02-18T05:31:19.643Z,2469.4595
2023-02-18T05:46:22.282Z,2214.398
2023-02-18T06:01:24.557Z,2267.62871
2023-02-18T06:16:26.810Z,2187.01751
2023-02-18T06:31:29.204Z,2445.9815
2023-02-18T06:46:31.600Z,2204.05035
2023-02-18T07:01:33.931Z,2027.22113
2023-02-18T07:16:36.237Z,1977.63851
2023-02-18T07:31:38.578Z,1872.93233
2023-02-18T07:46:41.101Z,1728.77264
2023-02-18T08:01:44.210Z,1676.54078
2023-02-18T08:16:47.402Z,1727.71722
2023-02-18T08:31:49.852Z,1638.68029
2023-02-18T08:46:52.290Z,1644.39329
2023-02-18T09:01:54.738Z,1722.45941
2023-02-18T09:16:56.998Z,1858.17515
2023-02-18T09:31:59.373Z,1725.61025
2023-02-18T09:47:01.949Z,1641.53182
2023-02-18T10:02:04.228Z,1622.70692
2023-02-18T10:17:06.450Z,1698.67997
2023-02-18T10:32:08.724Z,1619.92036
2023-02-18T10:47:11.042Z,1679.52572
2023-02-18T11:02:13.267Z,1643.43836
2023-02-18T11:17:15.497Z,1757.76447
2023-02-18T11:32:17.688Z,1680.52306
2023-02-18T11:47:20.052Z,1660.79862
2023-02-18T12:02:22.417Z,1544.76032
2023-02-18T12:17:24.653Z,1606.12989
2023-02-18T12:32:27.129Z,1622.70692
2023-02-18T12:47:29.496Z,1550.68542
2023-02-18T13:02:31.701Z,1359.27044
2023-02-18T13:17:33.883Z,1376.45966
2023-02-18T13:32:36.100Z,1363.19897
2023-02-18T13:47:38.409Z,1357.96596
2023-02-18T14:02:40.716Z,1318.73303
2023-02-18T14:17:42.972Z,1229.36627
2023-02-18T14:32:45.212Z,1207.33839
2023-02-18T14:47:47.676Z,1216.6815
2023-02-18T15:02:49.882Z,1369.79722
2023-02-18T15:17:52.094Z,1326.14859
2023-02-18T15:32:54.559Z,1239.0548
2023-02-18T15:47:56.872Z,1111.54803
2023-02-18T16:02:59.139Z,1185.09263
2023-02-18T16:18:01.416Z,1204.25582
2023-02-18T16:33:03.681Z,1313.83523
2023-02-18T16:48:05.904Z,1581.00608
2023-02-18T17:03:08.145Z,2007.0927
2023-02-18T17:18:10.441Z,2064.18723
2023-02-18T17:33:12.775Z,2522.28215
2023-02-18T17:48:15.079Z,2896.62284
2023-02-18T18:03:17.308Z,3256.61729
2023-02-18T18:18:20.080Z,3422.00774
2023-02-18T18:33:22.545Z,3837.28863
2023-02-18T18:48:25.132Z,4174.0418
2023-02-18T19:03:27.557Z,4284.63336
2023-02-18T19:18:29.800Z,4643.15064
2023-02-18T19:33:32.246Z,4854.20292
2023-02-18T19:48:34.543Z,5329.56739
2023-02-18T20:03:36.844Z,5400.7639
2023-02-18T20:18:39.146Z,5284.78112
2023-02-18T20:33:41.395Z,5000.00053
2023-02-18T20:48:43.798Z,5192.66108
2023-02-18T21:03:46.086Z,5071.68512
2023-02-18T21:18:48.360Z,5168.9503
2023-02-18T21:33:50.637Z,5108.30378
2023-02-18T21:48:52.972Z,4594.15636
2023-02-18T22:03:55.317Z,4031.33953
2023-02-18T22:18:57.712Z,4239.70088
2023-02-18T22:34:00.157Z,4477.84861
2023-02-18T22:49:02.509Z,4704.90492
2023-02-18T23:04:04.853Z,4817.0218
2023-02-18T23:19:07.149Z,5421.45648
2023-02-18T23:34:09.502Z,5757.88458
2023-02-18T23:49:11.833Z,5811.08885
